createdAt,value
2018-03-03T00:00:05.166Z,69.51
2018-03-03T00:01:05.121Z,69.51
2018-03-03T00:02:05.231Z,69.32
2018-03-03T00:03:05.065Z,69.89
2018-03-03T00:04:05.050Z,69.42
2018-03-03T00:05:04.927Z,69.13
2018-03-03T00:06:04.891Z,68.76
2018-03-03T00:07:04.849Z,69.70
2018-03-03T00:08:04.791Z,69.13
2018-03-03T00:09:04.766Z,69.13
2018-03-03T00:10:04.702Z,68.95
2018-03-03T00:11:04.647Z,68.66
2018-03-03T00:12:04.602Z,68.47
2018-03-03T00:13:04.541Z,69.42
2018-03-03T00:14:04.546Z,69.32
2018-03-03T00:15:04.448Z,68.47
2018-03-03T00:16:04.464Z,68.57
2018-03-03T00:17:04.358Z,68.57
2018-03-03T00:18:04.292Z,68.66
2018-03-03T00:19:04.247Z,68.85
2018-03-03T00:20:04.239Z,68.85
2018-03-03T00:21:04.169Z,68.38
2018-03-03T00:22:04.159Z,68.29
2018-03-03T00:23:04.093Z,68.38
2018-03-03T00:24:04.002Z,68.47
2018-03-03T00:25:03.989Z,68.95
2018-03-03T00:26:03.922Z,68.85
2018-03-03T00:27:03.903Z,68.57
2018-03-03T00:28:03.815Z,68.38
2018-03-03T00:29:03.795Z,67.91
2018-03-03T00:30:03.741Z,67.62
2018-03-03T00:31:03.688Z,67.91
2018-03-03T00:32:03.705Z,67.81
2018-03-03T00:33:03.611Z,68.38
2018-03-03T00:34:03.560Z,68.38
2018-03-03T00:35:03.506Z,67.81
2018-03-03T00:36:03.564Z,68.76
2018-03-03T00:37:03.396Z,68.19
2018-03-03T00:38:03.345Z,67.91
2018-03-03T00:39:03.307Z,67.91
2018-03-03T00:40:03.282Z,68.19
2018-03-03T00:41:03.203Z,68.47
2018-03-03T00:42:03.173Z,68.38
2018-03-03T00:43:03.093Z,68.19
2018-03-03T00:44:03.582Z,67.81
2018-03-03T00:45:03.009Z,68.19
2018-03-03T00:46:02.948Z,68.38
2018-03-03T00:47:02.925Z,67.81
2018-03-03T00:48:03.577Z,68.00
2018-03-03T00:49:02.989Z,68.38
2018-03-03T00:50:02.844Z,68.38
2018-03-03T00:51:02.732Z,67.62
2018-03-03T00:52:02.676Z,68.29
2018-03-03T00:53:02.634Z,67.81
2018-03-03T00:54:02.562Z,67.91
2018-03-03T00:55:02.530Z,67.34
2018-03-03T00:56:02.520Z,67.62
2018-03-03T00:57:02.443Z,67.91
2018-03-03T00:58:02.384Z,67.91
2018-03-03T00:59:02.372Z,68.29
2018-03-03T01:00:02.278Z,68.38
2018-03-03T01:01:02.243Z,68.76
2018-03-03T01:02:03.118Z,68.57
2018-03-03T01:03:02.155Z,68.19
2018-03-03T01:04:02.128Z,68.29
2018-03-03T01:05:02.051Z,67.34
2018-03-03T01:06:02.032Z,67.62
2018-03-03T01:07:01.950Z,67.53
2018-03-03T01:08:01.918Z,66.96
2018-03-03T01:09:01.897Z,68.10
2018-03-03T01:10:01.794Z,67.15
2018-03-03T01:11:01.754Z,66.96
2018-03-03T01:12:01.762Z,66.96
2018-03-03T01:13:01.687Z,67.62
2018-03-03T01:14:01.622Z,68.10
2018-03-03T01:15:01.590Z,68.66
2018-03-03T01:16:01.580Z,68.38
2018-03-03T01:17:01.479Z,68.66
2018-03-03T01:18:02.081Z,68.76
2018-03-03T01:19:01.386Z,69.04
2018-03-03T01:20:01.375Z,69.42
2018-03-03T01:21:01.368Z,69.13
2018-03-03T01:22:01.269Z,69.04
2018-03-03T01:23:01.180Z,70.07
2018-03-03T01:24:01.125Z,69.32
2018-03-03T01:25:01.108Z,69.42
2018-03-03T01:26:01.033Z,69.04
2018-03-03T01:27:01.000Z,69.13
2018-03-03T01:28:00.938Z,68.85
2018-03-03T01:29:00.951Z,69.79
2018-03-03T01:30:00.855Z,70.17
2018-03-03T01:31:01.586Z,69.32
2018-03-03T01:32:00.757Z,68.76
2018-03-03T01:33:00.741Z,68.85
2018-03-03T01:34:00.669Z,69.51
2018-03-03T01:35:00.639Z,68.76
2018-03-03T01:36:00.634Z,69.04
2018-03-03T01:37:00.543Z,69.79
2018-03-03T01:38:00.490Z,69.13
2018-03-03T01:39:00.422Z,69.42
2018-03-03T01:40:00.373Z,69.42
2018-03-03T01:41:00.339Z,69.32
2018-03-03T01:42:00.324Z,69.79
2018-03-03T01:43:00.219Z,69.32
2018-03-03T01:44:00.188Z,69.79
2018-03-03T01:45:00.168Z,70.26
2018-03-03T01:46:00.111Z,70.17
2018-03-03T01:47:00.028Z,70.17
2018-03-03T01:48:00.018Z,70.54
2018-03-03T01:48:59.925Z,71.30
2018-03-03T01:49:59.896Z,71.11
2018-03-03T01:50:59.902Z,70.45
2018-03-03T01:52:00.580Z,71.11
2018-03-03T01:52:59.788Z,71.40
2018-03-03T01:53:59.748Z,70.45
2018-03-03T01:54:59.728Z,70.36
2018-03-03T01:55:59.614Z,70.54
2018-03-03T01:56:59.586Z,71.11
2018-03-03T01:57:59.503Z,71.11
2018-03-03T01:58:59.479Z,71.30
2018-03-03T01:59:59.415Z,71.40
2018-03-03T02:00:59.435Z,70.92
2018-03-03T02:01:59.381Z,71.02
2018-03-03T02:02:59.280Z,71.30
2018-03-03T02:03:59.261Z,72.53
2018-03-03T02:04:59.165Z,73.19
2018-03-03T02:05:59.169Z,73.28
2018-03-03T02:06:59.100Z,73.10
2018-03-03T02:07:59.038Z,72.25
2018-03-03T02:08:59.017Z,72.06
2018-03-03T02:09:59.581Z,71.68
2018-03-03T02:10:58.880Z,71.77
2018-03-03T02:11:59.586Z,71.58
2018-03-03T02:12:58.808Z,71.96
2018-03-03T02:13:58.802Z,72.62
2018-03-03T02:14:58.706Z,73.38
2018-03-03T02:15:59.579Z,72.72
2018-03-03T02:16:58.641Z,72.81
2018-03-03T02:17:58.587Z,72.72
2018-03-03T02:18:58.550Z,72.72
2018-03-03T02:19:58.460Z,72.25
2018-03-03T02:20:58.423Z,72.15
2018-03-03T02:21:58.367Z,71.77
2018-03-03T02:22:58.333Z,72.34
2018-03-03T02:23:58.251Z,72.06
2018-03-03T02:24:58.221Z,72.44
2018-03-03T02:25:58.160Z,72.15
2018-03-03T02:26:58.121Z,72.87
2018-03-03T02:27:58.072Z,74.10
2018-03-03T02:28:58.057Z,73.94
2018-03-03T02:29:58.046Z,74.22
2018-03-03T02:30:57.947Z,73.19
2018-03-03T02:31:57.897Z,74.69
2018-03-03T02:32:58.582Z,75.60
2018-03-03T02:33:57.838Z,74.88
2018-03-03T02:34:57.753Z,74.69
2018-03-03T02:35:57.708Z,74.79
2018-03-03T02:36:57.639Z,74.88
2018-03-03T02:37:57.611Z,74.79
2018-03-03T02:38:57.560Z,74.88
2018-03-03T02:39:58.088Z,74.85
2018-03-03T02:40:57.470Z,75.36
2018-03-03T02:41:57.417Z,76.02
2018-03-03T02:42:57.371Z,76.11
2018-03-03T02:43:57.458Z,74.98
2018-03-03T02:44:57.295Z,74.04
2018-03-03T02:45:57.203Z,73.10
2018-03-03T02:46:57.234Z,74.22
2018-03-03T02:47:57.101Z,73.94
2018-03-03T02:48:57.071Z,73.85
2018-03-03T02:49:57.012Z,73.19
2018-03-03T02:50:57.587Z,73.28
2018-03-03T02:51:56.934Z,74.13
2018-03-03T02:52:56.954Z,73.85
2018-03-03T02:53:56.841Z,73.85
2018-03-03T02:54:56.791Z,73.66
2018-03-03T02:55:56.737Z,73.75
2018-03-03T02:56:56.694Z,73.10
2018-03-03T02:57:56.627Z,72.44
2018-03-03T02:58:56.623Z,72.44
2018-03-03T02:59:56.585Z,71.96
2018-03-03T03:00:56.501Z,72.15
2018-03-03T03:01:56.447Z,72.06
2018-03-03T03:02:56.420Z,73.00
2018-03-03T03:03:56.355Z,74.88
2018-03-03T03:04:57.086Z,74.13
2018-03-03T03:05:56.280Z,72.91
2018-03-03T03:06:57.087Z,73.47
2018-03-03T03:07:56.160Z,73.94
2018-03-03T03:08:56.077Z,75.07
2018-03-03T03:09:56.095Z,74.69
2018-03-03T03:10:56.030Z,74.88
2018-03-03T03:11:56.584Z,73.85
2018-03-03T03:12:55.938Z,74.22
2018-03-03T03:13:55.861Z,74.04
2018-03-03T03:14:55.853Z,74.60
2018-03-03T03:15:55.821Z,74.13
2018-03-03T03:16:55.736Z,73.85
2018-03-03T03:17:55.666Z,73.10
2018-03-03T03:18:55.622Z,73.85
2018-03-03T03:19:55.552Z,75.07
2018-03-03T03:20:56.089Z,75.45
2018-03-03T03:21:55.490Z,76.02
2018-03-03T03:22:55.426Z,75.64
2018-03-03T03:23:55.377Z,75.17
2018-03-03T03:24:55.331Z,74.60
2018-03-03T03:25:55.285Z,74.69
2018-03-03T03:26:55.272Z,74.88
2018-03-03T03:27:55.220Z,74.60
2018-03-03T03:28:56.097Z,74.22
2018-03-03T03:29:55.107Z,74.22
2018-03-03T03:30:55.045Z,74.04
2018-03-03T03:31:55.013Z,74.22
2018-03-03T03:32:54.952Z,74.13
2018-03-03T03:33:54.956Z,73.75
2018-03-03T03:34:54.864Z,73.75
2018-03-03T03:35:55.588Z,74.04
2018-03-03T03:36:54.771Z,73.75
2018-03-03T03:37:55.590Z,74.22
2018-03-03T03:38:54.668Z,74.04
2018-03-03T03:39:54.610Z,74.13
2018-03-03T03:40:54.578Z,74.13
2018-03-03T03:41:55.088Z,74.04
2018-03-03T03:42:54.635Z,74.13
2018-03-03T03:43:54.423Z,74.69
2018-03-03T03:44:54.418Z,74.88
2018-03-03T03:45:54.332Z,74.32
2018-03-03T03:46:54.294Z,74.98
2018-03-03T03:47:54.246Z,75.07
2018-03-03T03:48:54.230Z,76.02
2018-03-03T03:49:54.117Z,75.60
2018-03-03T03:50:54.077Z,76.45
2018-03-03T03:51:54.587Z,76.35
2018-03-03T03:52:54.632Z,76.17
2018-03-03T03:53:53.938Z,76.45
2018-03-03T03:54:53.930Z,76.45
2018-03-03T03:55:53.887Z,76.35
2018-03-03T03:56:53.806Z,76.45
2018-03-03T03:57:53.775Z,76.07
2018-03-03T03:58:53.693Z,76.35
2018-03-03T03:59:54.588Z,77.01
2018-03-03T04:00:53.597Z,76.82
2018-03-03T04:01:53.587Z,76.92
2018-03-03T04:02:53.530Z,77.11
2018-03-03T04:03:53.524Z,77.25
2018-03-03T04:04:53.443Z,77.15
2018-03-03T04:05:53.381Z,77.44
2018-03-03T04:06:53.315Z,77.06
2018-03-03T04:07:54.092Z,76.40
2018-03-03T04:08:53.227Z,76.30
2018-03-03T04:09:53.196Z,76.02
2018-03-03T04:10:53.135Z,76.21
2018-03-03T04:11:53.080Z,75.92
2018-03-03T04:12:53.006Z,76.49
2018-03-03T04:13:52.979Z,76.30
2018-03-03T04:14:52.931Z,77.44
2018-03-03T04:15:53.604Z,76.77
2018-03-03T04:16:53.047Z,76.21
2018-03-03T04:17:52.842Z,76.11
2018-03-03T04:18:52.748Z,76.21
2018-03-03T04:19:52.682Z,76.58
2018-03-03T04:20:52.636Z,76.96
2018-03-03T04:21:52.593Z,76.68
2018-03-03T04:22:52.535Z,76.30
2018-03-03T04:23:52.481Z,76.58
2018-03-03T04:24:53.086Z,76.58
2018-03-03T04:25:52.424Z,77.15
2018-03-03T04:26:52.375Z,76.40
2018-03-03T04:27:52.312Z,78.00
2018-03-03T04:28:52.265Z,77.53
2018-03-03T04:29:52.229Z,77.91
2018-03-03T04:30:52.288Z,77.15
2018-03-03T04:31:52.592Z,77.58
2018-03-03T04:32:52.049Z,77.30
2018-03-03T04:33:52.008Z,77.49
2018-03-03T04:34:51.959Z,77.86
2018-03-03T04:35:51.924Z,77.58
2018-03-03T04:36:51.856Z,77.86
2018-03-03T04:37:51.803Z,77.86
2018-03-03T04:38:51.760Z,77.49
2018-03-03T04:39:51.732Z,78.81
2018-03-03T04:40:51.672Z,79.19
2018-03-03T04:41:51.647Z,78.62
2018-03-03T04:42:52.094Z,78.71
2018-03-03T04:43:52.089Z,78.90
2018-03-03T04:44:51.542Z,78.15
2018-03-03T04:45:51.444Z,78.15
2018-03-03T04:46:51.413Z,78.15
2018-03-03T04:47:51.328Z,78.34
2018-03-03T04:48:51.300Z,78.00
2018-03-03T04:49:51.223Z,78.75
2018-03-03T04:50:52.097Z,78.85
2018-03-03T04:51:51.134Z,78.81
2018-03-03T04:52:51.158Z,78.15
2018-03-03T04:53:51.039Z,78.56
2018-03-03T04:54:51.021Z,79.00
2018-03-03T04:55:50.938Z,79.03
2018-03-03T04:56:51.594Z,79.32
2018-03-03T04:57:51.591Z,78.85
2018-03-03T04:58:50.794Z,77.81
2018-03-03T04:59:50.776Z,77.34
2018-03-03T05:00:50.687Z,77.06
2018-03-03T05:01:50.674Z,76.40
2018-03-03T05:02:50.626Z,76.21
2018-03-03T05:03:50.547Z,76.21
2018-03-03T05:04:50.502Z,76.30
2018-03-03T05:05:51.088Z,76.40
2018-03-03T05:06:51.103Z,76.02
2018-03-03T05:07:50.381Z,76.40
2018-03-03T05:08:50.324Z,75.45
2018-03-03T05:09:50.250Z,75.64
2018-03-03T05:10:50.247Z,76.02
2018-03-03T05:11:50.154Z,76.02
2018-03-03T05:12:50.209Z,75.73
2018-03-03T05:13:50.062Z,75.92
2018-03-03T05:14:50.022Z,75.83
2018-03-03T05:15:49.962Z,76.02
2018-03-03T05:16:49.935Z,76.30
2018-03-03T05:17:49.872Z,76.49
2018-03-03T05:18:49.846Z,76.30
2018-03-03T05:19:49.797Z,76.21
2018-03-03T05:20:49.746Z,75.92
2018-03-03T05:21:49.670Z,76.02
2018-03-03T05:22:49.629Z,76.11
2018-03-03T05:23:50.100Z,75.92
2018-03-03T05:24:49.568Z,75.92
2018-03-03T05:25:49.509Z,75.83
2018-03-03T05:26:49.423Z,75.73
2018-03-03T05:27:49.424Z,75.36
2018-03-03T05:28:49.351Z,75.45
2018-03-03T05:29:50.095Z,76.11
2018-03-03T05:30:49.277Z,76.30
2018-03-03T05:31:50.098Z,76.11
2018-03-03T05:32:49.263Z,75.64
2018-03-03T05:33:49.216Z,76.02
2018-03-03T05:34:49.060Z,76.02
2018-03-03T05:35:49.038Z,75.92
2018-03-03T05:36:48.996Z,76.02
2018-03-03T05:37:48.910Z,75.64
2018-03-03T05:38:48.898Z,75.64
2018-03-03T05:39:48.923Z,75.45
2018-03-03T05:40:48.826Z,76.11
2018-03-03T05:41:48.690Z,76.11
2018-03-03T05:42:48.684Z,76.40
2018-03-03T05:43:48.701Z,76.30
2018-03-03T05:44:48.569Z,76.11
2018-03-03T05:45:49.094Z,75.92
2018-03-03T05:46:48.479Z,76.49
2018-03-03T05:47:48.418Z,75.92
2018-03-03T05:48:48.390Z,75.54
2018-03-03T05:49:48.327Z,74.88
2018-03-03T05:50:48.346Z,75.83
2018-03-03T05:51:48.284Z,76.02
2018-03-03T05:52:48.175Z,76.11
2018-03-03T05:53:48.204Z,76.02
2018-03-03T05:54:48.595Z,76.77
2018-03-03T05:55:48.054Z,76.11
2018-03-03T05:56:47.976Z,75.83
2018-03-03T05:57:48.066Z,75.83
2018-03-03T05:58:47.946Z,75.92
2018-03-03T05:59:47.873Z,76.02
2018-03-03T06:00:47.813Z,76.02
2018-03-03T06:01:47.737Z,75.92
2018-03-03T06:02:48.598Z,75.45
2018-03-03T06:03:47.658Z,75.45
2018-03-03T06:04:47.595Z,76.02
2018-03-03T06:05:47.583Z,75.83
2018-03-03T06:06:48.095Z,75.54
2018-03-03T06:07:47.525Z,75.45
2018-03-03T06:08:47.431Z,75.83
2018-03-03T06:09:47.346Z,75.83
2018-03-03T06:10:47.346Z,76.11
2018-03-03T06:11:47.291Z,76.58
2018-03-03T06:12:47.201Z,76.02
2018-03-03T06:13:47.181Z,75.54
2018-03-03T06:14:47.132Z,75.73
2018-03-03T06:15:47.072Z,75.64
2018-03-03T06:16:47.068Z,75.73
2018-03-03T06:17:47.014Z,76.02
2018-03-03T06:18:46.927Z,75.45
2018-03-03T06:19:46.897Z,75.73
2018-03-03T06:20:46.905Z,75.73
2018-03-03T06:21:46.790Z,75.64
2018-03-03T06:22:46.798Z,75.73
2018-03-03T06:23:46.686Z,75.45
2018-03-03T06:24:47.600Z,75.73
2018-03-03T06:25:46.607Z,76.02
2018-03-03T06:26:46.571Z,76.02
2018-03-03T06:27:46.507Z,75.92
2018-03-03T06:28:46.489Z,76.40
2018-03-03T06:29:46.405Z,76.02
2018-03-03T06:30:46.340Z,75.64
2018-03-03T06:31:46.319Z,75.36
2018-03-03T06:32:46.266Z,75.45
2018-03-03T06:33:46.238Z,75.54
2018-03-03T06:34:46.165Z,75.45
2018-03-03T06:35:46.088Z,75.36
2018-03-03T06:36:46.048Z,75.36
2018-03-03T06:37:46.264Z,74.79
2018-03-03T06:38:45.956Z,75.45
2018-03-03T06:39:45.941Z,74.98
2018-03-03T06:40:45.853Z,75.73
2018-03-03T06:41:46.574Z,74.98
2018-03-03T06:42:45.808Z,75.36
2018-03-03T06:43:45.765Z,75.54
2018-03-03T06:44:45.685Z,75.36
2018-03-03T06:45:45.702Z,75.64
2018-03-03T06:46:45.642Z,75.64
2018-03-03T06:47:46.110Z,76.02
2018-03-03T06:48:45.507Z,75.73
2018-03-03T06:49:45.438Z,76.02
2018-03-03T06:50:45.401Z,75.64
2018-03-03T06:51:45.362Z,75.26
2018-03-03T06:52:45.273Z,75.26
2018-03-03T06:53:45.264Z,75.07
2018-03-03T06:54:45.382Z,75.54
2018-03-03T06:55:45.143Z,75.73
2018-03-03T06:56:45.144Z,74.98
2018-03-03T06:57:45.083Z,75.07
2018-03-03T06:58:44.999Z,75.36
2018-03-03T06:59:44.944Z,75.36
2018-03-03T07:00:44.932Z,75.07
2018-03-03T07:01:44.869Z,75.64
2018-03-03T07:02:44.966Z,75.54
2018-03-03T07:03:44.751Z,74.69
2018-03-03T07:04:45.597Z,74.88
2018-03-03T07:05:44.663Z,75.07
2018-03-03T07:06:44.598Z,74.60
2018-03-03T07:07:44.582Z,74.60
2018-03-03T07:08:44.574Z,74.60
2018-03-03T07:09:44.463Z,74.60
2018-03-03T07:10:44.539Z,74.60
2018-03-03T07:11:45.298Z,74.13
2018-03-03T07:12:44.340Z,74.41
2018-03-03T07:13:44.267Z,73.85
2018-03-03T07:14:44.243Z,74.69
2018-03-03T07:15:44.223Z,74.22
2018-03-03T07:16:44.251Z,74.51
2018-03-03T07:17:44.276Z,74.32
2018-03-03T07:18:44.047Z,73.47
2018-03-03T07:19:44.039Z,73.57
2018-03-03T07:20:43.947Z,74.32
2018-03-03T07:21:43.941Z,74.60
2018-03-03T07:22:43.837Z,74.60
2018-03-03T07:23:43.874Z,74.60
2018-03-03T07:24:43.801Z,74.32
2018-03-03T07:25:43.728Z,74.69
2018-03-03T07:26:43.662Z,74.88
2018-03-03T07:27:43.640Z,74.51
2018-03-03T07:28:43.565Z,73.94
2018-03-03T07:29:43.563Z,73.75
2018-03-03T07:30:43.530Z,74.41
2018-03-03T07:31:43.434Z,73.85
2018-03-03T07:32:43.406Z,74.13
2018-03-03T07:33:43.389Z,74.04
2018-03-03T07:34:43.276Z,73.85
2018-03-03T07:35:43.258Z,73.85
2018-03-03T07:36:43.212Z,73.47
2018-03-03T07:37:43.164Z,73.75
2018-03-03T07:38:43.131Z,74.22
2018-03-03T07:39:43.049Z,74.51
2018-03-03T07:40:43.028Z,74.04
2018-03-03T07:41:42.972Z,73.66
2018-03-03T07:42:42.914Z,73.47
2018-03-03T07:43:42.918Z,73.57
2018-03-03T07:44:42.840Z,73.57
2018-03-03T07:45:42.744Z,72.72
2018-03-03T07:46:42.708Z,73.47
2018-03-03T07:47:42.655Z,72.62
2018-03-03T07:48:42.642Z,72.81
2018-03-03T07:49:42.561Z,73.10
2018-03-03T07:50:42.543Z,73.47
2018-03-03T07:51:42.477Z,73.10
2018-03-03T07:52:42.455Z,72.06
2018-03-03T07:53:42.384Z,72.25
2018-03-03T07:54:42.343Z,72.06
2018-03-03T07:55:42.291Z,72.62
2018-03-03T07:56:42.257Z,73.10
2018-03-03T07:57:42.197Z,72.44
2018-03-03T07:58:42.122Z,72.00
2018-03-03T07:59:42.194Z,71.87
2018-03-03T08:00:42.045Z,72.28
2018-03-03T08:01:42.037Z,72.09
2018-03-03T08:02:41.979Z,71.34
2018-03-03T08:03:41.939Z,72.09
2018-03-03T08:04:41.845Z,71.53
2018-03-03T08:05:41.796Z,71.34
2018-03-03T08:06:41.750Z,71.15
2018-03-03T08:07:41.720Z,71.34
2018-03-03T08:08:41.685Z,71.06
2018-03-03T08:09:41.648Z,71.43
2018-03-03T08:10:42.106Z,70.68
2018-03-03T08:11:41.526Z,71.34
2018-03-03T08:12:41.520Z,71.72
2018-03-03T08:13:41.463Z,71.34
2018-03-03T08:14:41.385Z,71.15
2018-03-03T08:15:41.352Z,71.15
2018-03-03T08:16:41.332Z,71.34
2018-03-03T08:17:41.268Z,70.96
2018-03-03T08:18:41.178Z,71.53
2018-03-03T08:19:41.177Z,71.62
2018-03-03T08:20:41.096Z,71.06
2018-03-03T08:21:41.068Z,70.87
2018-03-03T08:22:41.011Z,72.09
2018-03-03T08:23:40.973Z,72.19
2018-03-03T08:24:40.912Z,71.72
2018-03-03T08:25:40.860Z,71.62
2018-03-03T08:26:40.844Z,71.34
2018-03-03T08:27:40.788Z,71.72
2018-03-03T08:28:40.723Z,72.00
2018-03-03T08:29:40.682Z,72.28
2018-03-03T08:30:40.704Z,73.51
2018-03-03T08:31:40.623Z,74.07
2018-03-03T08:32:40.615Z,74.55
2018-03-03T08:33:40.504Z,75.02
2018-03-03T08:34:40.459Z,75.87
2018-03-03T08:35:40.436Z,76.34
2018-03-03T08:36:40.375Z,76.90
2018-03-03T08:37:40.334Z,77.85
2018-03-03T08:38:40.322Z,78.23
2018-03-03T08:39:40.331Z,78.28
2018-03-03T08:40:40.202Z,78.60
2018-03-03T08:41:40.147Z,79.83
2018-03-03T08:42:40.120Z,79.74
2018-03-03T08:43:40.018Z,80.40
2018-03-03T08:44:39.995Z,80.21
2018-03-03T08:45:39.967Z,80.30
2018-03-03T08:46:39.877Z,80.58
2018-03-03T08:47:39.853Z,80.40
2018-03-03T08:48:39.926Z,80.58
2018-03-03T08:49:39.759Z,79.93
2018-03-03T08:50:39.790Z,80.77
2018-03-03T08:51:39.647Z,80.87
2018-03-03T08:52:39.677Z,81.34
2018-03-03T08:53:39.578Z,81.62
2018-03-03T08:54:39.503Z,81.81
2018-03-03T08:55:39.458Z,81.91
2018-03-03T08:56:39.430Z,81.81
2018-03-03T08:57:39.423Z,81.81
2018-03-03T08:58:39.332Z,82.47
2018-03-03T08:59:39.315Z,82.28
2018-03-03T09:00:39.228Z,82.28
2018-03-03T09:01:39.205Z,82.00
2018-03-03T09:02:39.147Z,81.53
2018-03-03T09:03:39.118Z,82.10
2018-03-03T09:04:39.089Z,82.19
2018-03-03T09:05:39.005Z,82.66
2018-03-03T09:06:39.007Z,82.19
2018-03-03T09:07:38.913Z,82.28
2018-03-03T09:08:38.870Z,82.19
2018-03-03T09:09:38.836Z,82.19
2018-03-03T09:10:38.798Z,82.38
2018-03-03T09:11:38.760Z,82.57
2018-03-03T09:12:38.680Z,81.81
2018-03-03T09:13:38.649Z,82.66
2018-03-03T09:14:38.580Z,82.10
2018-03-03T09:15:38.551Z,82.10
2018-03-03T09:16:38.475Z,82.47
2018-03-03T09:17:38.512Z,81.91
2018-03-03T09:18:38.384Z,82.19
2018-03-03T09:19:38.372Z,82.38
2018-03-03T09:20:38.349Z,81.53
2018-03-03T09:21:38.264Z,81.91
2018-03-03T09:22:38.213Z,82.28
2018-03-03T09:23:38.179Z,82.66
2018-03-03T09:24:38.118Z,82.10
2018-03-03T09:25:38.089Z,82.28
2018-03-03T09:26:38.061Z,81.81
2018-03-03T09:27:38.004Z,81.72
2018-03-03T09:28:37.965Z,81.53
2018-03-03T09:29:37.872Z,81.05
2018-03-03T09:30:37.850Z,81.15
2018-03-03T09:31:37.800Z,81.91
2018-03-03T09:32:37.773Z,82.38
2018-03-03T09:33:37.772Z,81.81
2018-03-03T09:34:37.648Z,81.81
2018-03-03T09:35:37.628Z,81.05
2018-03-03T09:36:37.557Z,81.05
2018-03-03T09:37:37.513Z,80.87
2018-03-03T09:38:37.474Z,81.05
2018-03-03T09:39:37.436Z,80.87
2018-03-03T09:40:37.380Z,80.77
2018-03-03T09:41:37.356Z,80.68
2018-03-03T09:42:37.294Z,80.58
2018-03-03T09:43:37.234Z,80.21
2018-03-03T09:44:37.203Z,80.40
2018-03-03T09:45:37.144Z,80.40
2018-03-03T09:46:37.113Z,80.11
2018-03-03T09:47:37.061Z,79.64
2018-03-03T09:48:37.031Z,79.55
2018-03-03T09:49:36.962Z,79.46
2018-03-03T09:50:36.962Z,79.27
2018-03-03T09:51:36.914Z,79.93
2018-03-03T09:52:36.827Z,79.93
2018-03-03T09:53:36.778Z,80.21
2018-03-03T09:54:36.746Z,80.15
2018-03-03T09:55:36.687Z,79.36
2018-03-03T09:56:36.624Z,79.46
2018-03-03T09:57:36.630Z,79.78
2018-03-03T09:58:36.562Z,80.06
2018-03-03T09:59:36.543Z,79.02
2018-03-03T10:00:36.469Z,79.02
2018-03-03T10:01:43.358Z,78.36
2018-03-03T10:02:36.380Z,78.51
2018-03-03T10:03:36.334Z,80.40
2018-03-03T10:04:36.269Z,81.95
2018-03-03T10:05:36.224Z,81.85
2018-03-03T10:06:36.185Z,81.20
2018-03-03T10:07:36.124Z,81.05
2018-03-03T10:08:36.128Z,80.49
2018-03-03T10:09:36.051Z,80.96
2018-03-03T10:10:36.619Z,81.95
2018-03-03T10:11:35.989Z,81.67
2018-03-03T10:12:35.892Z,81.48
2018-03-03T10:13:35.898Z,81.01
2018-03-03T10:14:35.835Z,81.29
2018-03-03T10:15:35.752Z,80.68
2018-03-03T10:16:35.718Z,81.34
2018-03-03T10:17:35.671Z,81.72
2018-03-03T10:18:35.647Z,82.10
2018-03-03T10:19:35.604Z,82.28
2018-03-03T10:20:35.581Z,82.10
2018-03-03T10:21:35.516Z,82.10
2018-03-03T10:22:35.465Z,82.57
2018-03-03T10:23:35.398Z,82.95
2018-03-03T10:24:35.410Z,83.51
2018-03-03T10:25:35.301Z,83.89
2018-03-03T10:26:35.285Z,83.70
2018-03-03T10:27:35.235Z,84.12
2018-03-03T10:28:35.176Z,83.14
2018-03-03T10:29:35.130Z,84.17
2018-03-03T10:30:35.070Z,85.02
2018-03-03T10:31:35.055Z,86.57
2018-03-03T10:32:34.983Z,85.59
2018-03-03T10:33:34.943Z,85.30
2018-03-03T10:34:35.613Z,84.92
2018-03-03T10:35:34.870Z,85.59
2018-03-03T10:36:34.808Z,85.49
2018-03-03T10:37:34.759Z,86.34
2018-03-03T10:38:34.755Z,86.06
2018-03-03T10:39:34.666Z,86.06
2018-03-03T10:40:34.633Z,85.87
2018-03-03T10:41:34.592Z,85.87
2018-03-03T10:42:34.553Z,86.72
2018-03-03T10:43:34.478Z,86.06
2018-03-03T10:44:34.445Z,85.87
2018-03-03T10:45:34.387Z,86.06
2018-03-03T10:46:34.387Z,85.77
2018-03-03T10:47:34.316Z,85.96
2018-03-03T10:48:34.256Z,86.01
2018-03-03T10:49:34.209Z,85.82
2018-03-03T10:50:34.163Z,85.44
2018-03-03T10:51:34.113Z,85.68
2018-03-03T10:52:34.119Z,85.82
2018-03-03T10:53:34.012Z,86.01
2018-03-03T10:54:33.972Z,85.63
2018-03-03T10:55:33.926Z,85.53
2018-03-03T10:56:33.912Z,84.22
2018-03-03T10:57:33.848Z,83.74
2018-03-03T10:58:33.814Z,84.41
2018-03-03T10:59:33.772Z,84.78
2018-03-03T11:00:33.704Z,85.25
2018-03-03T11:01:33.728Z,85.35
2018-03-03T11:02:33.637Z,85.16
2018-03-03T11:03:33.600Z,84.97
2018-03-03T11:04:33.528Z,85.25
2018-03-03T11:05:33.542Z,85.63
2018-03-03T11:06:33.423Z,84.78
2018-03-03T11:07:33.413Z,84.74
2018-03-03T11:08:33.347Z,85.35
2018-03-03T11:09:33.449Z,85.35
2018-03-03T11:10:34.127Z,85.35
2018-03-03T11:11:33.243Z,84.88
2018-03-03T11:12:33.173Z,84.78
2018-03-03T11:13:33.124Z,85.16
2018-03-03T11:14:33.073Z,84.31
2018-03-03T11:15:33.069Z,84.22
2018-03-03T11:16:32.992Z,84.31
2018-03-03T11:17:33.622Z,82.80
2018-03-03T11:18:32.877Z,82.99
2018-03-03T11:19:32.929Z,83.08
2018-03-03T11:20:32.825Z,82.89
2018-03-03T11:21:32.770Z,84.12
2018-03-03T11:22:32.717Z,83.93
2018-03-03T11:23:32.676Z,83.50
2018-03-03T11:24:32.637Z,81.04
2018-03-03T11:25:32.633Z,79.53
2018-03-03T11:26:32.545Z,78.87
2018-03-03T11:27:32.519Z,78.50
2018-03-03T11:28:32.490Z,78.21
2018-03-03T11:29:33.117Z,78.59
2018-03-03T11:30:32.355Z,79.06
2018-03-03T11:31:32.321Z,78.97
2018-03-03T11:32:32.273Z,78.31
2018-03-03T11:33:32.253Z,78.08
2018-03-03T11:34:32.189Z,80.25
2018-03-03T11:35:32.159Z,81.76
2018-03-03T11:36:32.240Z,82.32
2018-03-03T11:37:32.090Z,82.23
2018-03-03T11:38:32.003Z,82.32
2018-03-03T11:39:32.098Z,82.23
2018-03-03T11:40:33.131Z,81.76
2018-03-03T11:41:31.892Z,81.76
2018-03-03T11:42:32.015Z,82.42
2018-03-03T11:43:31.790Z,81.57
2018-03-03T11:44:31.795Z,80.91
2018-03-03T11:45:32.624Z,81.10
2018-03-03T11:46:31.711Z,82.32
2018-03-03T11:47:31.653Z,82.51
2018-03-03T11:48:31.561Z,82.32
2018-03-03T11:49:31.521Z,81.57
2018-03-03T11:50:31.482Z,81.95
2018-03-03T11:51:31.429Z,82.10
2018-03-03T11:52:31.430Z,83.33
2018-03-03T11:53:31.385Z,83.84
2018-03-03T11:54:31.333Z,83.36
2018-03-03T11:55:31.256Z,83.46
2018-03-03T11:56:31.292Z,82.80
2018-03-03T11:57:31.245Z,82.14
2018-03-03T11:58:31.140Z,82.51
2018-03-03T11:59:31.093Z,82.89
2018-03-03T12:00:31.092Z,81.95
2018-03-03T12:01:31.001Z,82.04
2018-03-03T12:02:30.970Z,82.61
2018-03-03T12:03:30.901Z,82.32
2018-03-03T12:04:30.854Z,81.57
2018-03-03T12:05:30.861Z,82.14
2018-03-03T12:06:30.770Z,82.80
2018-03-03T12:07:30.756Z,82.80
2018-03-03T12:08:30.719Z,82.04
2018-03-03T12:09:30.674Z,81.29
2018-03-03T12:10:30.622Z,81.38
2018-03-03T12:11:30.554Z,81.29
2018-03-03T12:12:30.520Z,81.85
2018-03-03T12:13:30.484Z,81.57
2018-03-03T12:14:30.415Z,81.57
2018-03-03T12:15:30.381Z,82.23
2018-03-03T12:16:30.326Z,81.20
2018-03-03T12:17:30.284Z,80.44
2018-03-03T12:18:30.248Z,80.48
2018-03-03T12:19:30.266Z,80.95
2018-03-03T12:20:30.165Z,80.19
2018-03-03T12:21:30.128Z,80.44
2018-03-03T12:22:30.053Z,80.15
2018-03-03T12:23:30.055Z,81.33
2018-03-03T12:24:31.732Z,81.61
2018-03-03T12:25:29.939Z,80.95
2018-03-03T12:26:29.892Z,79.63
2018-03-03T12:27:32.753Z,79.63
2018-03-03T12:28:30.164Z,79.06
2018-03-03T12:29:29.862Z,79.44
2018-03-03T12:30:29.739Z,79.11
2018-03-03T12:31:29.672Z,79.72
2018-03-03T12:32:29.644Z,80.48
2018-03-03T12:33:29.712Z,79.97
2018-03-03T12:34:29.860Z,81.20
2018-03-03T12:35:30.165Z,82.42
2018-03-03T12:36:29.471Z,82.14
2018-03-03T12:37:29.598Z,82.14
2018-03-03T12:38:29.367Z,82.70
2018-03-03T12:39:29.307Z,82.89
2018-03-03T12:40:29.297Z,82.70
2018-03-03T12:41:29.242Z,82.89
2018-03-03T12:42:29.196Z,82.51
2018-03-03T12:43:29.237Z,82.99
2018-03-03T12:44:29.144Z,82.99
2018-03-03T12:45:29.183Z,82.51
2018-03-03T12:46:29.012Z,82.51
2018-03-03T12:47:28.988Z,83.17
2018-03-03T12:48:28.940Z,83.27
2018-03-03T12:49:28.878Z,83.74
2018-03-03T12:50:28.874Z,83.55
2018-03-03T12:51:28.841Z,84.78